sensor_id;sensor_type;location;lat;lon;timestamp;pressure;altitude;pressure_sealevel;temperature;humidity
75788;BME280;64406;50.024;14.492;2023-02-28T00:00:51;99131.25;;;-2.26;71.53
75788;BME280;64406;50.024;14.492;2023-02-28T00:03:18;99139.84;;;-2.24;71.76
75788;BME280;64406;50.024;14.492;2023-02-28T00:05:43;99126.66;;;-2.24;71.47
75788;BME280;64406;50.024;14.492;2023-02-28T00:08:09;99122.19;;;-2.23;71.53
75788;BME280;64406;50.024;14.492;2023-02-28T00:10:35;99122.47;;;-2.18;71.87
75788;BME280;64406;50.024;14.492;2023-02-28T00:13:06;99123.59;;;-2.12;72.02
75788;BME280;64406;50.024;14.492;2023-02-28T00:15:34;99126.59;;;-2.15;71.47
75788;BME280;64406;50.024;14.492;2023-02-28T00:18:01;99120.94;;;-2.12;71.63
75788;BME280;64406;50.024;14.492;2023-02-28T00:20:26;99119.81;;;-2.10;71.32
75788;BME280;64406;50.024;14.492;2023-02-28T00:22:53;99124.25;;;-2.10;71.48
75788;BME280;64406;50.024;14.492;2023-02-28T00:25:22;99119.22;;;-1.97;71.00
75788;BME280;64406;50.024;14.492;2023-02-28T00:27:48;99119.34;;;-1.90;70.75
75788;BME280;64406;50.024;14.492;2023-02-28T00:30:16;99127.13;;;-1.97;70.53
75788;BME280;64406;50.024;14.492;2023-02-28T00:32:42;99118.56;;;-1.99;71.13
75788;BME280;64406;50.024;14.492;2023-02-28T00:35:08;99121.31;;;-1.93;70.42
75788;BME280;64406;50.024;14.492;2023-02-28T00:37:35;99125.31;;;-1.97;70.76
75788;BME280;64406;50.024;14.492;2023-02-28T00:40:00;99118.22;;;-1.96;71.00
75788;BME280;64406;50.024;14.492;2023-02-28T00:42:26;99119.50;;;-1.92;70.92
75788;BME280;64406;50.024;14.492;2023-02-28T00:44:52;99124.44;;;-1.89;71.12
75788;BME280;64406;50.024;14.492;2023-02-28T00:47:18;99126.72;;;-1.86;71.14
75788;BME280;64406;50.024;14.492;2023-02-28T00:49:44;99124.38;;;-1.81;71.20
75788;BME280;64406;50.024;14.492;2023-02-28T00:52:09;99127.59;;;-1.94;70.73
75788;BME280;64406;50.024;14.492;2023-02-28T00:54:35;99119.50;;;-1.92;71.32
75788;BME280;64406;50.024;14.492;2023-02-28T00:57:01;99117.84;;;-1.93;71.55
75788;BME280;64406;50.024;14.492;2023-02-28T00:59:27;99125.06;;;-1.87;71.14
75788;BME280;64406;50.024;14.492;2023-02-28T01:01:53;99124.63;;;-1.90;71.14
75788;BME280;64406;50.024;14.492;2023-02-28T01:04:18;99117.97;;;-1.86;70.67
75788;BME280;64406;50.024;14.492;2023-02-28T01:06:44;99126.78;;;-1.94;71.08
75788;BME280;64406;50.024;14.492;2023-02-28T01:09:10;99118.84;;;-1.94;71.24
75788;BME280;64406;50.024;14.492;2023-02-28T01:11:37;99119.34;;;-1.90;70.86
75788;BME280;64406;50.024;14.492;2023-02-28T01:14:03;99118.41;;;-1.98;70.60
75788;BME280;64406;50.024;14.492;2023-02-28T01:16:29;99111.63;;;-2.00;71.43
75788;BME280;64406;50.024;14.492;2023-02-28T01:18:55;99119.25;;;-2.05;71.48
75788;BME280;64406;50.024;14.492;2023-02-28T01:21:21;99122.72;;;-2.05;72.10
75788;BME280;64406;50.024;14.492;2023-02-28T01:23:47;99114.16;;;-2.07;71.50
75788;BME280;64406;50.024;14.492;2023-02-28T01:26:19;99127.88;;;-2.11;72.02
75788;BME280;64406;50.024;14.492;2023-02-28T01:28:45;99126.09;;;-2.11;72.53
75788;BME280;64406;50.024;14.492;2023-02-28T01:31:12;99118.84;;;-2.17;72.01
75788;BME280;64406;50.024;14.492;2023-02-28T01:33:38;99116.47;;;-2.04;72.11
75788;BME280;64406;50.024;14.492;2023-02-28T01:36:13;99120.69;;;-2.17;72.66
75788;BME280;64406;50.024;14.492;2023-02-28T01:38:40;99119.19;;;-2.20;72.57
75788;BME280;64406;50.024;14.492;2023-02-28T01:41:07;99120.94;;;-2.12;72.15
75788;BME280;64406;50.024;14.492;2023-02-28T01:46:08;99107.50;;;-2.17;72.26
75788;BME280;64406;50.024;14.492;2023-02-28T01:48:37;99107.63;;;-2.19;72.54
75788;BME280;64406;50.024;14.492;2023-02-28T01:51:08;99112.69;;;-2.09;72.68
75788;BME280;64406;50.024;14.492;2023-02-28T01:53:39;99098.91;;;-2.20;72.28
75788;BME280;64406;50.024;14.492;2023-02-28T01:56:09;99101.22;;;-2.16;72.60
75788;BME280;64406;50.024;14.492;2023-02-28T01:58:37;99106.19;;;-2.22;73.00
75788;BME280;64406;50.024;14.492;2023-02-28T02:01:04;99103.59;;;-2.30;72.71
75788;BME280;64406;50.024;14.492;2023-02-28T02:03:30;99096.31;;;-2.28;73.21
75788;BME280;64406;50.024;14.492;2023-02-28T02:05:56;99099.56;;;-2.17;72.60
75788;BME280;64406;50.024;14.492;2023-02-28T02:08:25;99096.56;;;-2.14;71.62
75788;BME280;64406;50.024;14.492;2023-02-28T02:10:55;99092.88;;;-2.28;71.74
75788;BME280;64406;50.024;14.492;2023-02-28T02:27:02;99094.19;;;-2.32;71.91
75788;BME280;64406;50.024;14.492;2023-02-28T02:29:45;99092.38;;;-2.32;71.61
75788;BME280;64406;50.024;14.492;2023-02-28T02:37:47;99090.56;;;-2.31;70.23
75788;BME280;64406;50.024;14.492;2023-02-28T02:40:38;99089.09;;;-2.34;70.60
75788;BME280;64406;50.024;14.492;2023-02-28T02:43:19;99090.44;;;-2.38;70.87
75788;BME280;64406;50.024;14.492;2023-02-28T02:45:50;99095.06;;;-2.40;70.84
75788;BME280;64406;50.024;14.492;2023-02-28T02:48:19;99095.06;;;-2.40;70.11
75788;BME280;64406;50.024;14.492;2023-02-28T02:50:50;99102.53;;;-2.43;70.17
75788;BME280;64406;50.024;14.492;2023-02-28T02:53:19;99086.69;;;-2.43;69.00
75788;BME280;64406;50.024;14.492;2023-02-28T02:55:48;99094.31;;;-2.49;70.35
75788;BME280;64406;50.024;14.492;2023-02-28T02:58:23;99091.72;;;-2.57;69.90
75788;BME280;64406;50.024;14.492;2023-02-28T03:00:53;99094.81;;;-2.53;69.64
75788;BME280;64406;50.024;14.492;2023-02-28T03:03:22;99092.66;;;-2.50;69.85
75788;BME280;64406;50.024;14.492;2023-02-28T03:05:54;99100.41;;;-2.48;68.91
75788;BME280;64406;50.024;14.492;2023-02-28T03:08:20;99098.09;;;-2.51;68.45
75788;BME280;64406;50.024;14.492;2023-02-28T03:10:48;99102.13;;;-2.63;69.38
75788;BME280;64406;50.024;14.492;2023-02-28T03:30:22;99107.25;;;-3.17;70.88
75788;BME280;64406;50.024;14.492;2023-02-28T03:33:14;99100.06;;;-3.32;71.55
75788;BME280;64406;50.024;14.492;2023-02-28T03:35:42;99097.47;;;-3.48;72.45
75788;BME280;64406;50.024;14.492;2023-02-28T03:38:34;99104.88;;;-3.51;72.21
75788;BME280;64406;50.024;14.492;2023-02-28T03:41:06;99099.78;;;-3.61;73.00
75788;BME280;64406;50.024;14.492;2023-02-28T03:43:38;99093.38;;;-3.75;73.49
75788;BME280;64406;50.024;14.492;2023-02-28T03:46:10;99093.22;;;-3.90;73.65
75788;BME280;64406;50.024;14.492;2023-02-28T03:48:45;99102.78;;;-3.89;74.44
75788;BME280;64406;50.024;14.492;2023-02-28T03:51:16;99093.56;;;-4.01;74.53
75788;BME280;64406;50.024;14.492;2023-02-28T03:53:52;99098.31;;;-4.04;74.76
75788;BME280;64406;50.024;14.492;2023-02-28T03:56:22;99096.66;;;-4.05;74.77
75788;BME280;64406;50.024;14.492;2023-02-28T03:59:22;99102.09;;;-4.15;75.79
75788;BME280;64406;50.024;14.492;2023-02-28T04:01:51;99096.84;;;-4.07;74.79
75788;BME280;64406;50.024;14.492;2023-02-28T04:04:17;99091.25;;;-4.20;75.22
75788;BME280;64406;50.024;14.492;2023-02-28T04:06:44;99100.13;;;-4.21;75.84
75788;BME280;64406;50.024;14.492;2023-02-28T04:09:13;99102.25;;;-4.17;75.29
75788;BME280;64406;50.024;14.492;2023-02-28T04:11:49;99108.31;;;-4.24;75.36
75788;BME280;64406;50.024;14.492;2023-02-28T04:14:21;99099.72;;;-4.43;76.46
75788;BME280;64406;50.024;14.492;2023-02-28T04:16:47;99099.44;;;-4.40;76.76
75788;BME280;64406;50.024;14.492;2023-02-28T04:19:13;99099.72;;;-4.51;76.58
75788;BME280;64406;50.024;14.492;2023-02-28T04:21:42;99105.16;;;-4.52;77.03
75788;BME280;64406;50.024;14.492;2023-02-28T04:24:10;99104.97;;;-4.51;76.80
75788;BME280;64406;50.024;14.492;2023-02-28T04:26:41;99110.41;;;-4.52;77.35
75788;BME280;64406;50.024;14.492;2023-02-28T04:29:10;99111.22;;;-4.52;77.51
75788;BME280;64406;50.024;14.492;2023-02-28T04:31:36;99110.84;;;-4.65;78.14
75788;BME280;64406;50.024;14.492;2023-02-28T04:34:01;99114.13;;;-4.71;78.03
75788;BME280;64406;50.024;14.492;2023-02-28T04:36:28;99114.00;;;-4.61;78.52
75788;BME280;64406;50.024;14.492;2023-02-28T04:38:53;99114.13;;;-4.63;77.67
75788;BME280;64406;50.024;14.492;2023-02-28T04:41:19;99120.03;;;-4.69;77.97
75788;BME280;64406;50.024;14.492;2023-02-28T04:43:45;99116.25;;;-4.75;78.50
75788;BME280;64406;50.024;14.492;2023-02-28T04:46:11;99112.47;;;-4.80;79.07
75788;BME280;64406;50.024;14.492;2023-02-28T04:48:38;99115.09;;;-4.80;78.84
75788;BME280;64406;50.024;14.492;2023-02-28T04:51:09;99123.16;;;-4.74;79.23
75788;BME280;64406;50.024;14.492;2023-02-28T04:53:36;99119.19;;;-4.78;78.40
75788;BME280;64406;50.024;14.492;2023-02-28T04:56:03;99125.75;;;-4.82;78.96
75788;BME280;64406;50.024;14.492;2023-02-28T04:58:29;99117.81;;;-4.90;78.61
75788;BME280;64406;50.024;14.492;2023-02-28T05:01:02;99121.44;;;-4.91;78.54
75788;BME280;64406;50.024;14.492;2023-02-28T05:03:28;99130.81;;;-4.88;79.10
75788;BME280;64406;50.024;14.492;2023-02-28T05:05:54;99131.91;;;-4.99;79.07
75788;BME280;64406;50.024;14.492;2023-02-28T05:08:19;99126.34;;;-4.96;79.29
75788;BME280;64406;50.024;14.492;2023-02-28T05:10:45;99131.94;;;-4.91;79.11
75788;BME280;64406;50.024;14.492;2023-02-28T05:13:12;99128.97;;;-4.96;79.42
75788;BME280;64406;50.024;14.492;2023-02-28T05:15:38;99132.06;;;-5.01;78.64
75788;BME280;64406;50.024;14.492;2023-02-28T05:18:04;99132.91;;;-5.00;79.08
75788;BME280;64406;50.024;14.492;2023-02-28T05:20:29;99129.75;;;-5.04;78.55
75788;BME280;64406;50.024;14.492;2023-02-28T05:22:56;99128.63;;;-5.01;79.47
75788;BME280;64406;50.024;14.492;2023-02-28T05:25:23;99139.97;;;-5.01;78.46
75788;BME280;64406;50.024;14.492;2023-02-28T05:27:49;99139.59;;;-5.06;79.24
75788;BME280;64406;50.024;14.492;2023-02-28T05:30:15;99135.16;;;-5.05;78.67
75788;BME280;64406;50.024;14.492;2023-02-28T05:32:41;99142.88;;;-5.04;79.25
75788;BME280;64406;50.024;14.492;2023-02-28T05:35:11;99144.66;;;-5.12;79.40
75788;BME280;64406;50.024;14.492;2023-02-28T05:37:38;99152.16;;;-5.17;79.32
75788;BME280;64406;50.024;14.492;2023-02-28T05:40:05;99151.50;;;-5.20;79.58
75788;BME280;64406;50.024;14.492;2023-02-28T05:42:32;99154.78;;;-5.17;79.10
75788;BME280;64406;50.024;14.492;2023-02-28T05:44:58;99150.34;;;-5.17;79.27
75788;BME280;64406;50.024;14.492;2023-02-28T05:47:24;99155.13;;;-5.21;80.07
75788;BME280;64406;50.024;14.492;2023-02-28T05:49:50;99152.16;;;-5.17;79.59
75788;BME280;64406;50.024;14.492;2023-02-28T05:52:16;99155.97;;;-5.12;79.68
75788;BME280;64406;50.024;14.492;2023-02-28T05:54:42;99156.97;;;-5.13;79.85
75788;BME280;64406;50.024;14.492;2023-02-28T05:57:07;99158.59;;;-5.12;80.08
75788;BME280;64406;50.024;14.492;2023-02-28T05:59:33;99164.88;;;-5.05;78.81
75788;BME280;64406;50.024;14.492;2023-02-28T06:01:59;99163.53;;;-5.09;79.73
75788;BME280;64406;50.024;14.492;2023-02-28T06:04:26;99169.75;;;-5.10;79.80
75788;BME280;64406;50.024;14.492;2023-02-28T06:06:51;99174.88;;;-5.08;78.59
75788;BME280;64406;50.024;14.492;2023-02-28T06:09:17;99186.88;;;-5.06;79.36
75788;BME280;64406;50.024;14.492;2023-02-28T06:11:43;99179.63;;;-5.12;78.94
75788;BME280;64406;50.024;14.492;2023-02-28T06:14:17;99178.34;;;-5.08;79.47
75788;BME280;64406;50.024;14.492;2023-02-28T06:16:43;99177.03;;;-5.04;78.49
75788;BME280;64406;50.024;14.492;2023-02-28T06:19:09;99179.97;;;-5.07;78.63
75788;BME280;64406;50.024;14.492;2023-02-28T06:21:35;99187.53;;;-5.04;79.16
75788;BME280;64406;50.024;14.492;2023-02-28T06:24:02;99183.59;;;-5.08;78.93
75788;BME280;64406;50.024;14.492;2023-02-28T06:26:28;99180.22;;;-4.92;78.89
75788;BME280;64406;50.024;14.492;2023-02-28T06:28:54;99190.00;;;-5.02;78.81
75788;BME280;64406;50.024;14.492;2023-02-28T06:31:20;99188.22;;;-5.02;79.00
75788;BME280;64406;50.024;14.492;2023-02-28T06:33:46;99193.81;;;-4.97;78.34
75788;BME280;64406;50.024;14.492;2023-02-28T06:36:13;99195.81;;;-4.90;78.64
75788;BME280;64406;50.024;14.492;2023-02-28T06:38:39;99206.09;;;-4.71;77.12
75788;BME280;64406;50.024;14.492;2023-02-28T06:41:08;99206.75;;;-4.69;77.24
75788;BME280;64406;50.024;14.492;2023-02-28T06:43:37;99205.03;;;-4.60;77.99
75788;BME280;64406;50.024;14.492;2023-02-28T06:46:05;99205.03;;;-4.52;77.28
75788;BME280;64406;50.024;14.492;2023-02-28T06:48:32;99202.28;;;-4.43;75.69
75788;BME280;64406;50.024;14.492;2023-02-28T06:51:04;99206.59;;;-4.33;75.76
75788;BME280;64406;50.024;14.492;2023-02-28T06:53:31;99214.66;;;-4.35;75.63
75788;BME280;64406;50.024;14.492;2023-02-28T06:55:56;99209.09;;;-4.24;75.55
75788;BME280;64406;50.024;14.492;2023-02-28T06:58:22;99215.91;;;-3.97;75.81
75788;BME280;64406;50.024;14.492;2023-02-28T07:00:51;99214.94;;;-3.79;72.88
75788;BME280;64406;50.024;14.492;2023-02-28T07:03:17;99212.16;;;-3.86;73.59
75788;BME280;64406;50.024;14.492;2023-02-28T07:05:44;99217.06;;;-3.91;72.80
75788;BME280;64406;50.024;14.492;2023-02-28T07:08:10;99212.81;;;-3.84;72.62
75788;BME280;64406;50.024;14.492;2023-02-28T07:10:39;99208.38;;;-3.75;72.32
75788;BME280;64406;50.024;14.492;2023-02-28T07:13:07;99213.31;;;-3.64;71.37
75788;BME280;64406;50.024;14.492;2023-02-28T07:15:33;99207.22;;;-3.24;70.01
75788;BME280;64406;50.024;14.492;2023-02-28T07:17:58;99215.31;;;-3.09;69.62
75788;BME280;64406;50.024;14.492;2023-02-28T07:20:24;99212.81;;;-2.94;68.86
75788;BME280;64406;50.024;14.492;2023-02-28T07:22:51;99215.09;;;-2.91;68.66
75788;BME280;64406;50.024;14.492;2023-02-28T07:25:28;99209.53;;;-3.13;68.76
75788;BME280;64406;50.024;14.492;2023-02-28T07:27:55;99217.09;;;-3.18;69.46
75788;BME280;64406;50.024;14.492;2023-02-28T07:30:21;99217.78;;;-3.16;69.11
75788;BME280;64406;50.024;14.492;2023-02-28T07:32:47;99226.31;;;-3.06;68.95
75788;BME280;64406;50.024;14.492;2023-02-28T07:35:13;99225.34;;;-2.96;67.84
75788;BME280;64406;50.024;14.492;2023-02-28T07:37:41;99232.06;;;-2.94;67.65
75788;BME280;64406;50.024;14.492;2023-02-28T07:40:10;99236.94;;;-2.50;66.47
75788;BME280;64406;50.024;14.492;2023-02-28T07:42:42;99233.75;;;-2.06;65.42
75788;BME280;64406;50.024;14.492;2023-02-28T07:45:09;99229.75;;;0.01;58.96
75788;BME280;64406;50.024;14.492;2023-02-28T07:47:41;99236.88;;;-0.88;60.96
75788;BME280;64406;50.024;14.492;2023-02-28T07:50:09;99235.72;;;-0.56;60.00
75788;BME280;64406;50.024;14.492;2023-02-28T07:52:39;99239.00;;;-1.44;61.16
75788;BME280;64406;50.024;14.492;2023-02-28T07:55:07;99245.72;;;-1.87;63.12
75788;BME280;64406;50.024;14.492;2023-02-28T07:57:34;99246.50;;;-2.10;63.88
75788;BME280;64406;50.024;14.492;2023-02-28T07:59:59;99241.22;;;-2.18;64.35
75788;BME280;64406;50.024;14.492;2023-02-28T08:02:25;99243.44;;;-1.99;63.56
75788;BME280;64406;50.024;14.492;2023-02-28T08:04:51;99218.06;;;3.78;50.61
75788;BME280;64406;50.024;14.492;2023-02-28T08:07:17;99225.72;;;3.42;46.00
75788;BME280;64406;50.024;14.492;2023-02-28T08:09:44;99235.63;;;1.31;51.37
75788;BME280;64406;50.024;14.492;2023-02-28T08:12:12;99245.47;;;-0.12;54.73
75788;BME280;64406;50.024;14.492;2023-02-28T08:14:38;99240.13;;;-0.86;57.65
75788;BME280;64406;50.024;14.492;2023-02-28T08:17:05;99244.13;;;-1.05;58.37
75788;BME280;64406;50.024;14.492;2023-02-28T08:19:31;99248.44;;;-1.27;59.23
75788;BME280;64406;50.024;14.492;2023-02-28T08:21:57;99241.88;;;-1.54;59.58
75788;BME280;64406;50.024;14.492;2023-02-28T08:24:25;99248.22;;;-1.63;59.67
75788;BME280;64406;50.024;14.492;2023-02-28T08:26:51;99250.78;;;-1.78;60.67
75788;BME280;64406;50.024;14.492;2023-02-28T08:29:17;99252.56;;;-1.78;59.74
75788;BME280;64406;50.024;14.492;2023-02-28T08:31:43;99254.13;;;-1.84;60.39
75788;BME280;64406;50.024;14.492;2023-02-28T08:34:10;99245.38;;;-1.84;60.82
75788;BME280;64406;50.024;14.492;2023-02-28T08:36:36;99245.00;;;-1.81;60.95
75788;BME280;64406;50.024;14.492;2023-02-28T08:39:03;99240.69;;;-1.74;60.98
75788;BME280;64406;50.024;14.492;2023-02-28T08:41:30;99235.69;;;-1.69;60.60
75788;BME280;64406;50.024;14.492;2023-02-28T08:43:56;99242.28;;;-1.65;59.53
75788;BME280;64406;50.024;14.492;2023-02-28T08:46:23;99233.38;;;-1.64;60.83
75788;BME280;64406;50.024;14.492;2023-02-28T08:48:54;99228.72;;;-1.62;60.99
75788;BME280;64406;50.024;14.492;2023-02-28T08:51:24;99238.91;;;-1.59;60.17
75788;BME280;64406;50.024;14.492;2023-02-28T08:53:54;99234.59;;;-1.52;59.47
75788;BME280;64406;50.024;14.492;2023-02-28T08:56:21;99251.63;;;-1.54;59.21
75788;BME280;64406;50.024;14.492;2023-02-28T08:58:48;99247.63;;;-1.50;59.94
75788;BME280;64406;50.024;14.492;2023-02-28T09:03:42;99232.94;;;-1.30;58.73
75788;BME280;64406;50.024;14.492;2023-02-28T09:06:09;99240.81;;;-1.22;58.61
75788;BME280;64406;50.024;14.492;2023-02-28T09:08:36;99233.50;;;-1.20;57.23
75788;BME280;64406;50.024;14.492;2023-02-28T09:11:02;99242.91;;;-1.17;57.61
75788;BME280;64406;50.024;14.492;2023-02-28T09:13:28;99237.63;;;-1.17;57.03
75788;BME280;64406;50.024;14.492;2023-02-28T09:15:57;99231.22;;;-1.23;58.24
75788;BME280;64406;50.024;14.492;2023-02-28T09:18:24;99225.06;;;-1.00;57.98
75788;BME280;64406;50.024;14.492;2023-02-28T09:20:50;99225.19;;;-0.94;56.71
75788;BME280;64406;50.024;14.492;2023-02-28T09:23:16;99225.03;;;-0.92;56.65
75788;BME280;64406;50.024;14.492;2023-02-28T09:25:51;99218.97;;;-0.86;56.66
75788;BME280;64406;50.024;14.492;2023-02-28T09:28:18;99225.66;;;-0.75;57.15
75788;BME280;64406;50.024;14.492;2023-02-28T09:30:46;99226.84;;;-0.78;57.19
75788;BME280;64406;50.024;14.492;2023-02-28T09:33:13;99230.41;;;-0.71;57.12
75788;BME280;64406;50.024;14.492;2023-02-28T09:35:40;99219.75;;;-0.63;56.26
75788;BME280;64406;50.024;14.492;2023-02-28T09:38:06;99229.78;;;-0.58;55.68
75788;BME280;64406;50.024;14.492;2023-02-28T09:40:43;99231.44;;;-0.57;55.81
75788;BME280;64406;50.024;14.492;2023-02-28T09:43:14;99228.06;;;-0.51;55.78
75788;BME280;64406;50.024;14.492;2023-02-28T09:45:43;99232.88;;;-0.40;55.68
75788;BME280;64406;50.024;14.492;2023-02-28T09:48:19;99234.88;;;-0.42;54.77
75788;BME280;64406;50.024;14.492;2023-02-28T09:50:52;99233.63;;;-0.46;55.72
75788;BME280;64406;50.024;14.492;2023-02-28T09:53:33;99234.34;;;-0.37;55.55
75788;BME280;64406;50.024;14.492;2023-02-28T10:01:09;99233.69;;;-0.10;55.17
75788;BME280;64406;50.024;14.492;2023-02-28T10:03:42;99234.16;;;-0.06;54.51
75788;BME280;64406;50.024;14.492;2023-02-28T10:06:20;99230.22;;;-0.10;54.17
75788;BME280;64406;50.024;14.492;2023-02-28T10:09:07;99229.34;;;0.04;54.06
75788;BME280;64406;50.024;14.492;2023-02-28T10:11:46;99238.31;;;0.03;53.60
75788;BME280;64406;50.024;14.492;2023-02-28T10:14:21;99238.13;;;0.05;54.44
75788;BME280;64406;50.024;14.492;2023-02-28T10:19:27;99235.63;;;0.18;53.89
75788;BME280;64406;50.024;14.492;2023-02-28T10:22:04;99239.47;;;0.15;53.60
75788;BME280;64406;50.024;14.492;2023-02-28T10:24:43;99243.88;;;0.08;53.46
75788;BME280;64406;50.024;14.492;2023-02-28T10:27:20;99231.88;;;0.12;53.62
75788;BME280;64406;50.024;14.492;2023-02-28T10:29:54;99240.72;;;0.34;53.94
75788;BME280;64406;50.024;14.492;2023-02-28T10:32:23;99231.13;;;0.33;53.74
75788;BME280;64406;50.024;14.492;2023-02-28T10:34:57;99225.81;;;0.33;53.99
75788;BME280;64406;50.024;14.492;2023-02-28T10:37:26;99224.16;;;0.32;53.80
75788;BME280;64406;50.024;14.492;2023-02-28T10:39:52;99214.72;;;0.44;53.71
75788;BME280;64406;50.024;14.492;2023-02-28T10:42:27;99224.13;;;0.47;53.05
75788;BME280;64406;50.024;14.492;2023-02-28T10:45:13;99217.88;;;0.54;53.42
75788;BME280;64406;50.024;14.492;2023-02-28T11:00:55;99216.66;;;0.78;53.98
75788;BME280;64406;50.024;14.492;2023-02-28T11:03:34;99220.81;;;0.88;52.76
75788;BME280;64406;50.024;14.492;2023-02-28T11:06:42;99219.09;;;1.01;52.29
75788;BME280;64406;50.024;14.492;2023-02-28T11:09:04;99200.28;;;0.96;52.53
75788;BME280;64406;50.024;14.492;2023-02-28T11:11:42;99223.38;;;1.02;52.00
75788;BME280;64406;50.024;14.492;2023-02-28T11:14:29;99210.97;;;1.09;52.05
75788;BME280;64406;50.024;14.492;2023-02-28T11:17:13;99197.06;;;1.01;50.99
75788;BME280;64406;50.024;14.492;2023-02-28T11:19:45;99202.59;;;1.06;51.28
75788;BME280;64406;50.024;14.492;2023-02-28T11:22:18;99207.25;;;1.04;52.01
75788;BME280;64406;50.024;14.492;2023-02-28T11:24:47;99174.97;;;0.94;51.59
75788;BME280;64406;50.024;14.492;2023-02-28T11:29:56;99191.28;;;0.97;52.13
75788;BME280;64406;50.024;14.492;2023-02-28T11:32:24;99188.69;;;1.04;52.51
75788;BME280;64406;50.024;14.492;2023-02-28T11:35:14;99200.53;;;1.36;51.94
75788;BME280;64406;50.024;14.492;2023-02-28T11:37:43;99194.00;;;1.39;50.88
75788;BME280;64406;50.024;14.492;2023-02-28T11:40:23;99182.97;;;1.35;50.23
75788;BME280;64406;50.024;14.492;2023-02-28T11:48:21;99195.88;;;1.45;50.22
75788;BME280;64406;50.024;14.492;2023-02-28T11:56:47;99177.16;;;1.53;50.04
75788;BME280;64406;50.024;14.492;2023-02-28T12:02:23;99178.00;;;1.60;50.75
75788;BME280;64406;50.024;14.492;2023-02-28T12:10:24;99174.78;;;1.78;49.83
75788;BME280;64406;50.024;14.492;2023-02-28T12:15:27;99167.63;;;1.72;48.94
75788;BME280;64406;50.024;14.492;2023-02-28T12:18:08;99168.50;;;1.79;49.19
75788;BME280;64406;50.024;14.492;2023-02-28T12:26:41;99161.50;;;1.71;50.04
75788;BME280;64406;50.024;14.492;2023-02-28T12:29:24;99141.72;;;1.80;49.76
75788;BME280;64406;50.024;14.492;2023-02-28T12:32:12;99159.38;;;2.01;49.16
75788;BME280;64406;50.024;14.492;2023-02-28T12:34:48;99154.28;;;2.06;49.16
75788;BME280;64406;50.024;14.492;2023-02-28T12:37:22;99140.78;;;2.08;49.05
75788;BME280;64406;50.024;14.492;2023-02-28T12:39:54;99150.00;;;2.12;48.39
75788;BME280;64406;50.024;14.492;2023-02-28T12:42:27;99140.97;;;2.06;48.77
75788;BME280;64406;50.024;14.492;2023-02-28T12:44:58;99155.72;;;2.22;48.13
75788;BME280;64406;50.024;14.492;2023-02-28T12:47:24;99146.94;;;2.15;48.59
75788;BME280;64406;50.024;14.492;2023-02-28T12:49:54;99151.66;;;2.26;48.40
75788;BME280;64406;50.024;14.492;2023-02-28T12:52:35;99140.00;;;2.27;48.57
75788;BME280;64406;50.024;14.492;2023-02-28T13:00:21;99147.56;;;2.30;48.60
75788;BME280;64406;50.024;14.492;2023-02-28T13:06:05;99142.84;;;2.19;48.29
75788;BME280;64406;50.024;14.492;2023-02-28T13:11:25;99139.19;;;2.40;48.10
75788;BME280;64406;50.024;14.492;2023-02-28T13:14:05;99135.94;;;2.38;48.12
75788;BME280;64406;50.024;14.492;2023-02-28T13:16:53;99132.63;;;2.82;47.51
75788;BME280;64406;50.024;14.492;2023-02-28T13:19:22;99128.19;;;3.47;45.68
75788;BME280;64406;50.024;14.492;2023-02-28T13:21:50;99131.59;;;4.44;43.59
75788;BME280;64406;50.024;14.492;2023-02-28T13:24:49;99125.59;;;4.74;42.14
75788;BME280;64406;50.024;14.492;2023-02-28T13:29:52;99125.31;;;6.52;38.91
75788;BME280;64406;50.024;14.492;2023-02-28T13:39:58;99111.50;;;9.02;33.55
75788;BME280;64406;50.024;14.492;2023-02-28T13:42:48;99126.97;;;7.87;34.73
75788;BME280;64406;50.024;14.492;2023-02-28T13:45:28;99120.56;;;7.24;36.85
75788;BME280;64406;50.024;14.492;2023-02-28T13:48:02;99102.44;;;9.08;33.77
75788;BME280;64406;50.024;14.492;2023-02-28T13:50:33;99112.38;;;11.13;30.35
75788;BME280;64406;50.024;14.492;2023-02-28T14:08:57;99108.50;;;14.06;25.24
75788;BME280;64406;50.024;14.492;2023-02-28T14:11:33;99099.69;;;14.68;24.05
75788;BME280;64406;50.024;14.492;2023-02-28T14:14:00;99105.53;;;15.39;24.43
75788;BME280;64406;50.024;14.492;2023-02-28T14:16:40;99102.59;;;15.59;23.35
75788;BME280;64406;50.024;14.492;2023-02-28T14:21:58;99105.19;;;15.21;22.78
75788;BME280;64406;50.024;14.492;2023-02-28T14:32:29;99090.88;;;13.54;25.04
75788;BME280;64406;50.024;14.492;2023-02-28T14:37:53;99082.03;;;13.28;25.69
75788;BME280;64406;50.024;14.492;2023-02-28T14:40:26;99085.84;;;13.01;26.06
75788;BME280;64406;50.024;14.492;2023-02-28T14:43:01;99089.41;;;12.61;26.42
75788;BME280;64406;50.024;14.492;2023-02-28T14:45:33;99084.53;;;12.43;26.26
75788;BME280;64406;50.024;14.492;2023-02-28T14:48:03;99087.19;;;13.09;25.67
75788;BME280;64406;50.024;14.492;2023-02-28T14:50:35;99070.41;;;13.27;25.45
75788;BME280;64406;50.024;14.492;2023-02-28T14:53:03;99088.56;;;12.61;26.31
75788;BME280;64406;50.024;14.492;2023-02-28T14:55:32;99075.59;;;12.83;26.27
75788;BME280;64406;50.024;14.492;2023-02-28T14:58:00;99089.09;;;12.27;27.57
75788;BME280;64406;50.024;14.492;2023-02-28T15:00:34;99094.19;;;12.03;26.90
75788;BME280;64406;50.024;14.492;2023-02-28T15:03:11;99082.47;;;11.77;27.42
75788;BME280;64406;50.024;14.492;2023-02-28T15:05:52;99086.97;;;12.49;26.53
75788;BME280;64406;50.024;14.492;2023-02-28T15:08:18;99090.44;;;12.19;27.12
75788;BME280;64406;50.024;14.492;2023-02-28T15:10:57;99082.34;;;12.86;26.65
75788;BME280;64406;50.024;14.492;2023-02-28T15:13:40;99080.72;;;12.90;26.24
75788;BME280;64406;50.024;14.492;2023-02-28T15:16:13;99086.34;;;13.34;25.34
75788;BME280;64406;50.024;14.492;2023-02-28T15:19:05;99089.38;;;12.87;25.23
75788;BME280;64406;50.024;14.492;2023-02-28T15:21:34;99092.03;;;10.95;28.02
75788;BME280;64406;50.024;14.492;2023-02-28T15:24:05;99100.28;;;9.48;30.64
75788;BME280;64406;50.024;14.492;2023-02-28T15:26:37;99097.91;;;8.58;31.56
75788;BME280;64406;50.024;14.492;2023-02-28T15:29:05;99090.97;;;8.95;31.49
75788;BME280;64406;50.024;14.492;2023-02-28T15:31:35;99084.50;;;9.13;31.51